LHBPLHKE

Guest
Details From LHBP - Ferihegy (Budapest)
To LHKE - KECSKEMET
Flight Number -
Tags decoded
Created
Modified
Stats Distance 37 nm / 68 km
Max Altitude 0 ft / 0 m
Waypoints 2
Social Downloads 0
Likes 0
Share VATSIM

Download

Looking for another format? Having issues loading an existing format? Contact us
Advertisement - Login to hide

Notes

Requested: LHBP LHKE

Route

LHBP LHKE

ID Type Via Altitude Latitude Longitude Leg Dist Tot Dist Heading (true) Name
O LHBP APT - 0 ft / 0 m 47.43529˚ 19.26579˚ - 0 nm - Ferihegy (Budapest)
O LHKE APT - 0 ft / 0 m 46.91750˚ 19.74922˚ 36 nm 36 nm 147° / 148° KECSKEMET

Altitude Profile

Advertisement - Login to hide

LHBP

Details ICAO LHBP (BUD)
Name Ferihegy (Budapest)
Region Hungary
Timezone Europe/Budapest (UTC+1.0)
Stats Elevation 495 ft / 151 m (AMSL)
Location 47.435292° 19.265792°
Runways 3
Magnetic Variation 4.763° E

METAR

LHBP 120300Z 17012KT CAVOK 10/06 Q1003 NOSIG

Decode

TAF

TAF TAF LHBP 112315Z 1200/1224 18012G22KT CAVOK TEMPO 1200/1204 20022G35KT TEMPO 1204/1208 15007KT BECMG 1209/1212 24006KT SCT025 OVC045 TEMPO 1212/1217 -RA BECMG 1213/1215 33006KT BECMG 1217/1219 32012KT -RA TEMPO 1219/1224 RA

Decode

Departure Runways

ID Width Length Bearing (true) Bearing (mag) Surface Threshold Offset Overrun Length
13 250 ft / 76 m 6,000 ft / 1,829 m 132.54° 127.78° Unknown 0 ft / 0 m 0 ft / 0 m
13L 196 ft / 60 m 12,487 ft / 3,806 m 132.54° 127.78° Asphalt 0 ft / 0 m 200 ft / 61 m
13R 196 ft / 60 m 10,145 ft / 3,092 m 132.49° 127.73° Asphalt 0 ft / 0 m 197 ft / 60 m
31 250 ft / 76 m 6,000 ft / 1,829 m 312.55° 307.79° Unknown 0 ft / 0 m 0 ft / 0 m
31L 196 ft / 60 m 10,145 ft / 3,092 m 312.51° 307.75° Asphalt 0 ft / 0 m 197 ft / 60 m
31R 196 ft / 60 m 12,487 ft / 3,806 m 312.56° 307.80° Asphalt 0 ft / 0 m 197 ft / 60 m

LHKE

Details ICAO LHKE
Name KECSKEMET
Region Hungary
Timezone Europe/Budapest (UTC+1.0)
Stats Elevation 376 ft / 115 m (AMSL)
Location 46.917500° 19.749222°
Runways 1
Magnetic Variation 4.802° E

METAR

LHKE 120245Z 17012KT CAVOK 07/03 Q1005 NOSIG RMK BLU

Decode

TAF

Not found

Destination Runways

ID Width Length Bearing (true) Bearing (mag) Surface Threshold Offset Overrun Length
12 197 ft / 60 m 8,178 ft / 2,493 m 123.04° 118.24° Concrete 0 ft / 0 m 200 ft / 61 m
30 197 ft / 60 m 8,178 ft / 2,493 m 303.06° 298.26° Concrete 0 ft / 0 m 200 ft / 61 m

Popular Alternatives